Time;durP1;ratioP1;P1;durP2;ratioP2;P2;SDS_P1;SDS_P2;PMS_P1;PMS_P2;Temp;Humidity;BMP_temperature;BMP_pressure;BME280_temperature;BME280_humidity;BME280_pressure;Samples;Min_cycle;Max_cycle;Signal;HPM_P1;HPM_P2
2022/11/07 00:02:54;;;;;;;117.80;50.42;;;;;;;3.70;100.00;99131.66;8442000;28;20062;-72
2022/11/07 00:06:56;;;;;;;124.15;50.10;;;;;;;3.69;100.00;99134.59;8442979;28;20386;-73
2022/11/07 00:10:58;;;;;;;112.57;48.33;;;;;;;3.68;100.00;99149.81;8443879;28;20039;-74
2022/11/07 00:14:58;;;;;;;124.45;50.65;;;;;;;3.66;100.00;99157.28;8444621;28;20632;-73
2022/11/07 00:19:00;;;;;;;144.40;49.88;;;;;;;3.60;100.00;99158.31;8424471;28;20048;-73
2022/11/07 00:23:00;;;;;;;136.13;48.10;;;;;;;3.60;100.00;99174.34;8447142;28;20043;-74
2022/11/07 00:27:01;;;;;;;153.52;47.78;;;;;;;3.56;100.00;99170.59;8424973;28;20380;-73
2022/11/07 00:31:04;;;;;;;140.02;48.28;;;;;;;3.50;100.00;99168.97;8436471;28;20067;-72
2022/11/07 00:35:05;;;;;;;149.82;46.10;;;;;;;3.42;100.00;99172.16;8452636;28;20493;-74
2022/11/07 00:39:10;;;;;;;157.30;43.90;;;;;;;3.36;100.00;99162.50;8436113;28;20044;-73
2022/11/07 00:43:11;;;;;;;114.97;44.80;;;;;;;3.33;100.00;99168.38;8433087;28;20394;-73
2022/11/07 00:47:12;;;;;;;111.93;44.78;;;;;;;3.25;100.00;99160.84;8432411;28;20101;-75
2022/11/07 00:51:18;;;;;;;105.00;42.75;;;;;;;3.23;100.00;99168.31;8441467;28;20051;-73
2022/11/07 00:55:19;;;;;;;117.40;45.40;;;;;;;3.21;100.00;99159.78;8431312;28;20052;-73
2022/11/07 00:59:20;;;;;;;102.90;42.08;;;;;;;3.18;100.00;99154.94;8439627;28;20035;-74
2022/11/07 01:07:42;;;;;;;103.00;42.97;;;;;;;3.17;100.00;99153.34;8441399;28;20044;-73
2022/11/07 01:11:43;;;;;;;113.13;41.75;;;;;;;3.13;100.00;99141.56;8440520;28;20138;-73
2022/11/07 01:15:45;;;;;;;96.47;40.58;;;;;;;3.12;100.00;99137.31;8422359;28;20048;-73
2022/11/07 01:19:46;;;;;;;106.22;41.85;;;;;;;3.15;100.00;99134.13;8444083;28;20688;-75
2022/11/07 01:23:47;;;;;;;141.27;44.25;;;;;;;3.17;100.00;99129.34;8444427;28;20057;-73
2022/11/07 01:27:48;;;;;;;119.63;42.22;;;;;;;3.21;100.00;99125.06;8443950;28;20508;-73
2022/11/07 01:31:49;;;;;;;108.85;42.17;;;;;;;3.21;100.00;99117.88;8435604;28;20040;-75
2022/11/07 01:35:50;;;;;;;107.07;42.13;;;;;;;3.23;100.00;99117.59;8431586;28;20052;-74
2022/11/07 01:39:51;;;;;;;128.02;43.50;;;;;;;3.25;100.00;99107.47;8432858;28;20096;-74
2022/11/07 01:44:07;;;;;;;99.40;41.28;;;;;;;3.25;100.00;99108.28;8440033;28;20423;-73
2022/11/07 01:48:08;;;;;;;108.53;41.03;;;;;;;3.24;100.00;99106.66;8430643;28;20449;-74
2022/11/07 01:52:19;;;;;;;117.85;43.30;;;;;;;3.25;100.00;99094.13;8442546;28;20055;-75
2022/11/07 01:56:23;;;;;;;98.30;42.22;;;;;;;3.24;100.00;99093.31;8409354;28;20062;-74
2022/11/07 02:00:25;;;;;;;101.00;42.10;;;;;;;3.23;100.00;99077.56;8438493;28;20062;-73
2022/11/07 02:04:28;;;;;;;98.80;40.75;;;;;;;3.20;100.00;99067.41;8440194;28;20508;-73
2022/11/07 02:08:31;;;;;;;109.07;41.83;;;;;;;3.19;100.00;99058.63;8427452;28;20090;-74
2022/11/07 02:12:35;;;;;;;99.60;40.30;;;;;;;3.22;100.00;99054.63;8446107;28;20481;-73
2022/11/07 02:16:36;;;;;;;105.43;42.00;;;;;;;3.22;100.00;99062.63;8443211;28;20395;-74
2022/11/07 02:20:38;;;;;;;91.80;38.40;;;;;;;3.18;100.00;99058.88;8402932;28;20086;-73
2022/11/07 02:24:39;;;;;;;93.18;38.47;;;;;;;3.17;100.00;99057.28;8433979;28;20058;-74
2022/11/07 02:28:41;;;;;;;96.78;40.75;;;;;;;3.19;100.00;99033.78;8439063;28;20051;-74
2022/11/07 02:32:42;;;;;;;95.70;38.80;;;;;;;3.25;100.00;99025.53;8441984;28;20043;-73
2022/11/07 02:36:43;;;;;;;95.95;38.83;;;;;;;3.31;100.00;99037.03;8435051;28;20448;-73
2022/11/07 02:40:47;;;;;;;99.50;40.22;;;;;;;3.36;100.00;99029.03;8435610;28;20140;-74
2022/11/07 02:44:48;;;;;;;103.78;39.45;;;;;;;3.36;100.00;99034.38;8436547;28;20406;-73
2022/11/07 02:48:52;;;;;;;98.40;37.33;;;;;;;3.40;100.00;99040.78;8448101;28;20043;-74
2022/11/07 02:52:53;;;;;;;92.88;36.83;;;;;;;3.44;100.00;99041.84;8455202;28;20043;-75
2022/11/07 02:56:54;;;;;;;99.07;38.90;;;;;;;3.45;100.00;99038.13;8435396;28;20444;-73
2022/11/07 03:01:05;;;;;;;97.68;37.50;;;;;;;3.48;100.00;99042.97;8427717;28;20048;-74
2022/11/07 03:05:06;;;;;;;103.78;39.95;;;;;;;3.55;100.00;99038.16;8432025;28;20060;-73
2022/11/07 03:09:08;;;;;;;96.07;38.13;;;;;;;3.58;100.00;99036.84;8424245;28;20418;-73
2022/11/07 03:13:08;;;;;;;106.80;42.97;;;;;;;3.63;100.00;99051.00;8432545;28;20059;-74
2022/11/07 03:17:09;;;;;;;114.95;43.78;;;;;;;3.65;100.00;99054.19;8448493;28;20055;-73
2022/11/07 03:21:10;;;;;;;107.65;40.88;;;;;;;3.64;100.00;99057.94;8415327;28;20385;-74
2022/11/07 03:25:12;;;;;;;114.75;43.60;;;;;;;3.63;100.00;99059.00;8445587;28;20052;-73
2022/11/07 03:29:15;;;;;;;107.28;40.28;;;;;;;3.61;100.00;99046.97;8443235;28;20048;-73
2022/11/07 03:33:17;;;;;;;107.82;43.20;;;;;;;3.64;100.00;99057.94;8438343;28;20056;-73
2022/11/07 03:37:18;;;;;;;101.90;41.90;;;;;;;3.68;100.00;99064.34;8426298;28;20047;-73
2022/11/07 03:41:19;;;;;;;108.63;39.70;;;;;;;3.72;100.00;99072.63;8453444;28;20113;-73
2022/11/07 03:45:19;;;;;;;98.22;38.55;;;;;;;3.75;100.00;99067.56;8448505;28;20044;-73
2022/11/07 03:49:21;;;;;;;88.00;39.10;;;;;;;3.80;100.00;99072.94;8385246;28;20044;-74
2022/11/07 03:53:21;;;;;;;102.70;39.97;;;;;;;3.87;100.00;99082.53;8418644;28;20123;-75
2022/11/07 03:57:22;;;;;;;92.90;40.00;;;;;;;3.82;100.00;99076.13;8404882;28;20078;-74
2022/11/07 04:01:23;;;;;;;96.45;40.75;;;;;;;3.77;100.00;99084.13;8419897;28;20150;-73
2022/11/07 04:05:24;;;;;;;97.53;40.67;;;;;;;3.79;100.00;99082.00;8432502;28;20048;-74
2022/11/07 04:09:25;;;;;;;94.57;38.65;;;;;;;3.75;100.00;99085.47;8427548;28;20131;-74
2022/11/07 04:17:47;;;;;;;89.90;37.58;;;;;;;3.82;100.00;99076.13;8434340;28;20039;-73
2022/11/07 04:21:48;;;;;;;93.25;37.75;;;;;;;3.92;100.00;99085.22;8432103;28;20386;-74
2022/11/07 04:30:22;;;;;;;91.07;38.13;;;;;;;4.02;100.00;99078.00;8429360;28;20052;-75
2022/11/07 04:34:23;;;;;;;92.00;39.20;;;;;;;4.07;100.00;99082.56;8382114;28;20052;-74
2022/11/07 04:38:24;;;;;;;94.35;37.50;;;;;;;4.12;100.00;99074.56;8370901;28;20507;-73
2022/11/07 04:42:25;;;;;;;84.28;36.03;;;;;;;4.16;100.00;99071.09;8382810;28;20063;-75
2022/11/07 04:46:26;;;;;;;90.75;38.03;;;;;;;4.18;100.00;99068.13;8393073;28;20044;-73
2022/11/07 04:50:27;;;;;;;83.75;36.95;;;;;;;4.21;100.00;99062.25;8385453;28;20072;-74
2022/11/07 04:54:28;;;;;;;85.88;37.45;;;;;;;4.16;100.00;99070.28;8404052;28;20444;-74
2022/11/07 04:58:29;;;;;;;79.85;34.83;;;;;;;4.14;100.00;99072.41;8416577;28;20037;-74
2022/11/07 05:02:30;;;;;;;94.30;36.40;;;;;;;4.15;100.00;99074.00;8423556;28;20486;-74
2022/11/07 05:06:33;;;;;;;79.13;34.70;;;;;;;4.17;100.00;99066.53;8424411;28;20131;-74
2022/11/07 05:10:35;;;;;;;69.85;31.00;;;;;;;4.18;100.00;99062.78;8446203;28;20088;-73
2022/11/07 05:14:35;;;;;;;79.13;32.63;;;;;;;4.23;100.00;99065.44;8458121;28;20126;-73
2022/11/07 05:18:37;;;;;;;85.10;33.97;;;;;;;4.26;100.00;99062.25;8464365;28;20051;-74
2022/11/07 05:26:58;;;;;;;77.05;34.65;;;;;;;4.31;100.00;99040.84;8435199;28;20040;-73
2022/11/07 05:31:01;;;;;;;75.70;33.05;;;;;;;4.42;100.00;99052.34;8450103;28;20054;-75
2022/11/07 05:35:04;;;;;;;78.80;32.92;;;;;;;4.46;100.00;99070.25;8464429;28;20522;-75
2022/11/07 05:39:05;;;;;;;74.80;33.17;;;;;;;4.45;100.00;99090.03;8427295;28;20483;-74
2022/11/07 05:43:11;;;;;;;87.03;34.15;;;;;;;4.47;100.00;99090.56;8446598;28;20051;-74
2022/11/07 05:47:12;;;;;;;75.82;33.20;;;;;;;4.52;100.00;99095.13;8424407;28;20044;-74
2022/11/07 05:51:13;;;;;;;73.40;31.65;;;;;;;4.55;100.00;99099.91;8437661;28;20050;-75
2022/11/07 05:55:14;;;;;;;69.53;31.55;;;;;;;4.61;100.00;99110.34;8443468;28;20047;-74
2022/11/07 05:59:15;;;;;;;67.00;29.63;;;;;;;4.66;100.00;99101.50;8421141;28;20077;-74
2022/11/07 06:03:21;;;;;;;70.40;30.27;;;;;;;4.69;100.00;99106.34;8434875;28;20501;-75
2022/11/07 06:07:22;;;;;;;77.28;33.97;;;;;;;4.76;100.00;99111.41;8444670;28;20048;-76
2022/11/07 06:11:23;;;;;;;133.73;56.22;;;;;;;4.79;100.00;99110.84;8443179;28;20512;-74
2022/11/07 06:15:26;;;;;;;94.28;39.30;;;;;;;4.81;100.00;99127.47;8442300;28;20056;-74
2022/11/07 06:19:26;;;;;;;78.78;32.70;;;;;;;4.84;100.00;99135.72;8442579;28;20044;-75
2022/11/07 06:23:27;;;;;;;67.85;31.33;;;;;;;4.91;100.00;99146.16;8393583;28;20461;-75
2022/11/07 06:27:30;;;;;;;76.07;30.25;;;;;;;4.94;100.00;99145.59;8448371;28;20117;-74
2022/11/07 06:31:31;;;;;;;70.40;30.67;;;;;;;4.99;100.00;99148.28;8413901;28;20066;-75
2022/11/07 06:35:32;;;;;;;72.25;31.23;;;;;;;5.06;100.00;99164.88;8452509;28;20047;-74
2022/11/07 06:39:33;;;;;;;64.15;28.35;;;;;;;5.06;100.00;99164.88;8445910;28;20418;-74
2022/11/07 06:43:34;;;;;;;60.70;27.67;;;;;;;5.09;100.00;99180.38;8447244;28;20047;-75
2022/11/07 06:47:36;;;;;;;62.90;27.73;;;;;;;5.16;100.00;99169.38;8460603;28;20043;-74
2022/11/07 06:51:37;;;;;;;72.35;32.45;;;;;;;5.29;100.00;99180.31;8457474;28;20043;-75
2022/11/07 06:55:38;;;;;;;90.05;37.97;;;;;;;5.34;100.00;99188.34;8429192;28;20127;-74
2022/11/07 06:59:39;;;;;;;85.20;34.33;;;;;;;5.41;100.00;99194.22;8436900;28;20058;-75
2022/11/07 07:03:41;;;;;;;86.53;38.50;;;;;;;5.47;100.00;99198.50;8461435;28;20100;-74
2022/11/07 07:07:42;;;;;;;78.50;34.17;;;;;;;5.52;100.00;99201.16;8432657;28;20127;-74
2022/11/07 07:11:44;;;;;;;71.28;33.30;;;;;;;5.56;100.00;99212.09;8451222;28;20036;-75
2022/11/07 07:15:52;;;;;;;68.07;29.10;;;;;;;5.58;100.00;99209.16;8428165;28;20060;-74
2022/11/07 07:19:54;;;;;;;76.38;33.90;;;;;;;5.58;100.00;99209.16;8425131;28;20481;-74
2022/11/07 07:23:55;;;;;;;69.32;30.67;;;;;;;5.58;100.00;99209.16;8434907;28;20059;-74
2022/11/07 07:27:56;;;;;;;59.53;29.58;;;;;;;5.52;100.00;99227.94;8445015;28;20040;-74
2022/11/07 07:31:57;;;;;;;54.33;26.92;;;;;;;5.50;100.00;99230.06;8442605;28;20126;-75
2022/11/07 07:35:58;;;;;;;63.70;27.42;;;;;;;5.50;100.00;99230.06;8453094;28;20047;-74
2022/11/07 07:39:59;;;;;;;50.65;23.40;;;;;;;5.53;100.00;99239.47;8453106;28;20111;-75
2022/11/07 07:44:00;;;;;;;41.38;19.40;;;;;;;5.66;100.00;99232.72;8433543;28;20100;-74
2022/11/07 07:48:01;;;;;;;51.55;23.10;;;;;;;5.77;100.00;99239.63;8451801;28;20105;-74
2022/11/07 07:52:02;;;;;;;34.35;15.52;;;;;;;5.99;100.00;99245.47;8449275;28;20040;-74
2022/11/07 07:56:05;;;;;;;38.03;17.13;;;;;;;6.21;100.00;99251.28;8433053;28;20489;-75
2022/11/07 08:00:07;;;;;;;24.23;11.40;;;;;;;6.46;100.00;99252.19;8454288;28;20048;-75
2022/11/07 08:04:08;;;;;;;20.60;10.35;;;;;;;6.73;100.00;99257.91;8425174;28;20051;-74
2022/11/07 08:08:14;;;;;;;19.73;10.88;;;;;;;6.98;100.00;99255.03;8433367;28;20473;-74
2022/11/07 08:12:15;;;;;;;22.80;10.68;;;;;;;7.14;100.00;99253.81;8425481;28;20044;-74
2022/11/07 08:16:16;;;;;;;23.10;11.05;;;;;;;7.30;100.00;99256.34;8429725;28;20509;-75
2022/11/07 08:20:23;;;;;;;19.58;10.23;;;;;;;7.42;99.61;99248.72;8451498;28;20058;-74
2022/11/07 08:24:24;;;;;;;21.23;10.17;;;;;;;7.49;98.13;99265.31;8463703;28;20051;-74
2022/11/07 08:28:27;;;;;;;20.52;9.75;;;;;;;7.58;97.25;99258.22;8417975;28;20447;-75
2022/11/07 08:32:29;;;;;;;17.73;8.98;;;;;;;7.64;97.08;99262.47;8433318;28;20048;-74
2022/11/07 08:36:29;;;;;;;26.88;10.82;;;;;;;7.71;96.75;99268.31;8430984;28;20055;-75
2022/11/07 08:40:30;;;;;;;22.23;10.18;;;;;;;7.77;96.47;99272.56;8423397;28;20129;-74
2022/11/07 08:44:33;;;;;;;21.30;9.75;;;;;;;7.83;95.87;99276.75;8431685;28;20052;-76
2022/11/07 08:48:34;;;;;;;16.23;8.40;;;;;;;7.91;94.49;99278.84;8421515;28;20051;-75
2022/11/07 08:52:35;;;;;;;19.98;9.30;;;;;;;7.95;94.77;99285.22;8452363;28;20047;-76
2022/11/07 08:56:38;;;;;;;24.42;10.38;;;;;;;8.01;94.84;99288.66;8431287;28;20059;-75
2022/11/07 09:00:38;;;;;;;18.92;9.73;;;;;;;8.06;94.85;99284.03;8461273;28;20059;-75
2022/11/07 09:04:40;;;;;;;16.05;8.63;;;;;;;8.18;94.98;99288.19;8429652;28;20051;-75
2022/11/07 09:08:41;;;;;;;12.30;6.90;;;;;;;8.31;94.42;99292.88;8444945;28;20056;-74
2022/11/07 09:12:49;;;;;;;18.08;7.50;;;;;;;8.40;93.16;99291.19;8463652;28;20086;-75
2022/11/07 09:16:53;;;;;;;12.93;5.57;;;;;;;8.52;91.88;99294.22;8439608;28;20048;-74
2022/11/07 09:20:55;;;;;;;12.25;7.18;;;;;;;8.54;92.32;99292.03;8430020;28;20055;-75
2022/11/07 09:24:56;;;;;;;14.10;7.60;;;;;;;8.60;92.19;99296.28;8443187;28;20542;-74
2022/11/07 09:28:57;;;;;;;12.80;6.68;;;;;;;8.66;91.96;99289.72;8441941;28;20056;-74
2022/11/07 09:32:58;;;;;;;14.85;6.75;;;;;;;8.73;91.52;99300.13;8449120;28;20040;-75
2022/11/07 09:37:01;;;;;;;12.35;6.95;;;;;;;8.75;91.27;99314.91;8440805;28;20093;-75
2022/11/07 09:41:15;;;;;;;15.13;6.78;;;;;;;8.79;90.74;99310.53;8443037;28;20056;-74
2022/11/07 09:45:16;;;;;;;12.10;6.68;;;;;;;8.81;91.64;99313.75;8463068;28;20052;-74
2022/11/07 09:49:25;;;;;;;13.75;6.53;;;;;;;8.92;90.92;99308.19;8441066;28;20044;-74
2022/11/07 09:53:33;;;;;;;14.95;7.30;;;;;;;9.02;91.52;99313.44;8443611;28;20452;-75
2022/11/07 09:57:34;;;;;;;14.82;7.45;;;;;;;9.13;90.83;99309.47;8434974;28;20043;-74
2022/11/07 10:01:35;;;;;;;12.98;6.65;;;;;;;9.19;90.68;99311.00;8462715;28;20406;-74
2022/11/07 10:06:05;;;;;;;14.32;7.60;;;;;;;9.20;89.86;99309.91;8446644;28;20083;-75
2022/11/07 10:10:09;;;;;;;15.63;7.35;;;;;;;9.26;90.09;99308.72;8325436;28;20053;-74
2022/11/07 10:14:21;;;;;;;12.60;6.85;;;;;;;9.29;90.20;99313.53;8326987;28;20099;-75
2022/11/07 10:18:52;;;;;;;15.02;8.02;;;;;;;9.33;90.34;99314.53;8299549;28;20083;-74
2022/11/07 10:23:22;;;;;;;14.88;7.50;;;;;;;9.35;90.52;99328.53;8340155;28;20048;-75
2022/11/07 10:27:25;;;;;;;17.17;7.40;;;;;;;9.29;90.84;99324.31;8294552;28;20530;-74
2022/11/07 10:31:32;;;;;;;13.93;7.75;;;;;;;9.29;91.18;99325.13;8338993;28;20474;-74
2022/11/07 10:35:34;;;;;;;13.02;7.32;;;;;;;9.30;91.15;99331.31;8321085;28;20056;-74
2022/11/07 10:39:35;;;;;;;14.18;7.32;;;;;;;9.34;91.24;99335.00;8326768;28;20048;-75
2022/11/07 10:43:38;;;;;;;14.43;7.07;;;;;;;9.35;91.26;99325.03;8351024;28;20586;-75
2022/11/07 10:47:40;;;;;;;15.63;7.43;;;;;;;9.33;91.37;99325.31;8440380;28;20059;-74
2022/11/07 10:51:42;;;;;;;12.88;6.93;;;;;;;9.34;91.77;99324.22;8441935;28;20045;-75
2022/11/07 10:55:48;;;;;;;14.52;7.25;;;;;;;9.36;91.92;99330.09;8456724;28;20105;-74
2022/11/07 10:59:57;;;;;;;13.38;6.65;;;;;;;9.37;92.04;99320.94;8436327;28;20052;-75
2022/11/07 11:03:59;;;;;;;14.07;7.28;;;;;;;9.44;92.03;99321.34;8435731;28;20046;-75
2022/11/07 11:08:22;;;;;;;15.77;6.47;;;;;;;9.60;91.49;99303.81;8455198;28;20417;-75
2022/11/07 11:12:28;;;;;;;15.23;6.00;;;;;;;9.83;91.11;99303.97;8467868;28;20050;-74
2022/11/07 11:16:32;;;;;;;12.20;5.78;;;;;;;10.01;90.52;99303.03;8453550;28;20051;-74
2022/11/07 11:20:42;;;;;;;15.80;6.47;;;;;;;10.13;90.07;99297.97;8439390;28;20075;-74
2022/11/07 11:24:43;;;;;;;15.85;6.25;;;;;;;10.23;89.25;99303.19;8423936;28;20043;-75
2022/11/07 11:28:47;;;;;;;11.68;5.80;;;;;;;10.35;88.89;99298.06;8457320;28;20413;-73
2022/11/07 11:32:52;;;;;;;11.38;5.80;;;;;;;10.52;88.83;99303.63;8448451;28;20113;-75
2022/11/07 11:37:14;;;;;;;11.07;5.47;;;;;;;10.67;88.73;99307.09;8444868;28;20046;-75
2022/11/07 11:41:52;;;;;;;13.38;5.50;;;;;;;10.68;87.42;99306.00;8463105;28;20049;-75
2022/11/07 11:46:08;;;;;;;12.60;5.05;;;;;;;10.70;86.49;99303.78;8348575;28;20049;-75
2022/11/07 11:50:27;;;;;;;13.00;5.35;;;;;;;10.76;86.21;99307.97;8348344;28;20060;-76
2022/11/07 11:54:28;;;;;;;10.30;5.00;;;;;;;10.79;84.87;99297.34;8324481;28;20048;-75
2022/11/07 11:58:36;;;;;;;6.78;4.18;;;;;;;10.92;85.17;99295.72;8329445;28;20481;-76
2022/11/07 12:02:49;;;;;;;10.83;5.03;;;;;;;11.08;84.49;99283.44;8320203;28;20388;-74
2022/11/07 12:06:53;;;;;;;10.55;4.50;;;;;;;11.20;83.92;99297.22;8361858;28;20048;-75
2022/11/07 12:11:25;;;;;;;11.00;4.70;;;;;;;11.20;84.50;99286.41;8330687;28;20077;-74
2022/11/07 12:15:48;;;;;;;6.75;4.10;;;;;;;11.32;84.87;99294.72;8287956;28;20046;-75
2022/11/07 12:20:30;;;;;;;6.13;4.10;;;;;;;11.35;83.92;99283.31;8323479;28;20056;-76
2022/11/07 12:24:52;;;;;;;7.15;4.20;;;;;;;11.40;83.82;99285.88;8198678;28;20057;-75
2022/11/07 12:29:23;;;;;;;7.95;4.22;;;;;;;11.42;82.60;99278.25;8255635;28;20050;-74
2022/11/07 12:33:55;;;;;;;10.73;3.92;;;;;;;11.49;83.38;99271.59;8224877;28;20062;-76
2022/11/07 12:37:56;;;;;;;7.40;3.92;;;;;;;11.52;83.27;99265.59;8249093;28;20416;-75
2022/11/07 12:42:30;;;;;;;11.77;4.30;;;;;;;11.61;83.03;99269.91;8262762;28;20050;-75
2022/11/07 12:46:49;;;;;;;5.10;2.80;;;;;;;11.75;81.33;99275.25;8184819;29;20059;-75
2022/11/07 12:51:26;;;;;;;8.70;3.47;;;;;;;12.14;78.65;99277.94;8192627;29;20052;-74
2022/11/07 12:55:41;;;;;;;5.82;2.75;;;;;;;12.70;77.06;99279.78;8150171;29;20048;-74
2022/11/07 12:59:47;;;;;;;7.60;2.60;;;;;;;13.30;74.91;99276.28;8196835;28;20100;-75
2022/11/07 13:04:08;;;;;;;4.05;2.30;;;;;;;13.49;73.48;99278.59;8249974;28;20424;-75
2022/11/07 13:08:16;;;;;;;7.25;2.92;;;;;;;13.66;73.06;99284.00;8262088;28;20058;-76
2022/11/07 13:12:24;;;;;;;4.63;2.55;;;;;;;13.80;72.83;99279.13;8261907;28;20073;-77
2022/11/07 13:16:33;;;;;;;6.25;2.55;;;;;;;13.48;72.39;99279.75;8275377;28;20057;-75
2022/11/07 13:20:34;;;;;;;4.13;2.28;;;;;;;13.23;73.17;99275.16;8222559;28;20100;-75
2022/11/07 13:24:51;;;;;;;8.80;2.40;;;;;;;13.03;74.19;99288.22;8355199;28;20040;-75
2022/11/07 13:28:57;;;;;;;12.35;2.42;;;;;;;12.88;75.25;99291.44;8373815;28;20076;-75
2022/11/07 13:32:59;;;;;;;6.50;2.90;;;;;;;12.72;75.02;99298.44;8424161;28;20116;-75
2022/11/07 13:37:01;;;;;;;8.40;4.28;;;;;;;12.58;75.08;99287.72;8443952;28;20177;-76
2022/11/07 13:41:05;;;;;;;9.52;4.80;;;;;;;12.48;75.55;99295.38;8456617;28;20089;-75
2022/11/07 13:45:25;;;;;;;11.02;5.13;;;;;;;12.33;76.05;99295.81;8461892;28;20172;-72
2022/11/07 13:49:31;;;;;;;10.65;5.25;;;;;;;12.32;75.70;99305.06;8443501;28;20044;-73
2022/11/07 13:53:37;;;;;;;12.57;5.82;;;;;;;12.21;75.76;99299.94;8462819;28;20097;-74
2022/11/07 13:57:45;;;;;;;16.15;6.75;;;;;;;11.98;76.47;99295.72;8449361;28;20135;-73
2022/11/07 14:01:45;;;;;;;13.88;6.07;;;;;;;11.81;77.14;99299.16;8462530;28;20142;-73
2022/11/07 14:05:47;;;;;;;10.95;5.63;;;;;;;11.63;77.98;99304.78;8447883;28;20048;-74
2022/11/07 14:09:57;;;;;;;11.40;5.90;;;;;;;11.43;78.90;99300.66;8443062;28;20051;-73
2022/11/07 14:13:58;;;;;;;16.98;6.20;;;;;;;11.27;79.66;99296.75;8460657;28;20138;-73
2022/11/07 14:18:00;;;;;;;11.60;6.18;;;;;;;11.13;80.19;99302.25;8442812;28;20424;-73
2022/11/07 14:22:01;;;;;;;12.25;7.25;;;;;;;10.97;80.86;99303.69;8446450;28;20044;-73
2022/11/07 14:26:18;;;;;;;13.27;6.47;;;;;;;10.85;81.29;99306.13;8461501;28;20059;-74
2022/11/07 14:30:20;;;;;;;11.15;5.85;;;;;;;10.83;81.15;99302.97;8447427;28;20044;-73
2022/11/07 14:34:21;;;;;;;9.00;5.30;;;;;;;10.71;81.37;99313.50;8461565;28;20051;-73
2022/11/07 14:38:24;;;;;;;12.15;5.95;;;;;;;10.65;81.54;99306.59;8460637;28;20131;-73
2022/11/07 14:42:25;;;;;;;11.52;5.40;;;;;;;10.55;81.78;99308.44;8442221;28;20131;-74
2022/11/07 14:46:26;;;;;;;9.60;5.00;;;;;;;10.54;81.70;99309.53;8444633;28;20109;-73
2022/11/07 14:50:27;;;;;;;9.45;5.30;;;;;;;10.48;81.93;99310.72;8457206;28;20060;-74
2022/11/07 14:54:35;;;;;;;15.95;5.20;;;;;;;10.41;81.98;99313.06;8461152;28;20043;-73
2022/11/07 14:58:36;;;;;;;10.85;5.78;;;;;;;10.34;82.25;99318.06;8441944;28;20051;-73
2022/11/07 15:02:37;;;;;;;11.05;5.72;;;;;;;10.28;82.75;99319.25;8433051;28;20104;-73
2022/11/07 15:06:43;;;;;;;9.88;5.50;;;;;;;10.16;83.02;99317.06;8424973;28;20052;-73
2022/11/07 15:10:45;;;;;;;11.30;5.53;;;;;;;10.06;83.67;99316.44;8439698;28;20048;-73
2022/11/07 15:15:02;;;;;;;9.85;5.32;;;;;;;9.97;83.75;99312.84;8447621;28;20055;-75
2022/11/07 15:19:06;;;;;;;12.60;5.70;;;;;;;9.83;84.78;99322.84;8441263;28;20052;-74
2022/11/07 15:23:12;;;;;;;22.55;6.43;;;;;;;9.68;85.11;99327.38;8446501;28;20087;-74
2022/11/07 15:27:39;;;;;;;17.98;8.60;;;;;;;9.45;86.31;99325.66;8460849;28;20051;-73
2022/11/07 15:31:47;;;;;;;25.35;10.25;;;;;;;9.31;87.10;99327.50;8460645;28;20040;-73
2022/11/07 15:35:50;;;;;;;20.70;9.18;;;;;;;9.14;88.38;99336.13;8446372;28;20054;-73
2022/11/07 15:39:51;;;;;;;16.58;8.85;;;;;;;9.14;88.50;99329.94;8459194;28;20074;-73
2022/11/07 15:43:52;;;;;;;19.70;9.23;;;;;;;9.10;88.85;99335.09;8460441;28;20096;-73
2022/11/07 15:47:52;;;;;;;18.30;7.95;;;;;;;9.05;89.66;99326.31;8434138;28;20127;-73
2022/11/07 15:51:54;;;;;;;22.52;10.07;;;;;;;9.14;89.50;99332.66;8361727;28;20057;-74
2022/11/07 15:56:00;;;;;;;68.57;21.23;;;;;;;9.19;89.51;99329.88;8362040;28;20231;-73
2022/11/07 16:00:01;;;;;;;52.45;16.25;;;;;;;9.27;89.16;99337.28;8361932;28;20059;-73
2022/11/07 16:04:02;;;;;;;68.30;23.98;;;;;;;9.27;89.31;99321.09;8361749;28;20091;-73
2022/11/07 16:08:06;;;;;;;44.85;20.67;;;;;;;9.18;89.50;99322.88;8361654;28;20072;-72
2022/11/07 16:12:11;;;;;;;38.22;19.90;;;;;;;9.01;90.44;99320.72;8361704;28;20045;-73
2022/11/07 16:16:18;;;;;;;24.30;11.68;;;;;;;8.89;91.13;99321.16;8344590;28;20045;-73
2022/11/07 16:20:22;;;;;;;32.10;15.80;;;;;;;8.83;91.18;99327.69;8361220;28;20080;-73
2022/11/07 16:24:23;;;;;;;26.30;13.35;;;;;;;8.86;91.02;99321.75;8344322;28;20057;-73
2022/11/07 16:28:33;;;;;;;43.65;19.70;;;;;;;8.86;91.09;99332.53;8392805;28;20055;-73
2022/11/07 16:32:35;;;;;;;31.15;14.95;;;;;;;8.85;91.14;99330.91;8451308;28;20490;-73
2022/11/07 16:36:37;;;;;;;24.73;13.65;;;;;;;8.82;91.55;99331.50;8450533;28;20536;-73
2022/11/07 16:40:38;;;;;;;26.02;11.27;;;;;;;8.79;91.53;99333.97;8440523;28;20044;-73
2022/11/07 16:44:39;;;;;;;23.73;12.88;;;;;;;8.71;92.11;99340.81;8446457;28;20058;-73
2022/11/07 16:48:42;;;;;;;26.67;12.40;;;;;;;8.69;92.12;99337.59;8464472;28;20043;-73
2022/11/07 16:52:42;;;;;;;20.17;11.35;;;;;;;8.78;91.73;99346.63;8423379;28;20052;-74
2022/11/07 16:56:46;;;;;;;28.00;10.63;;;;;;;8.75;91.99;99336.44;8445223;28;20539;-72
2022/11/07 17:00:46;;;;;;;27.05;10.65;;;;;;;8.71;92.39;99330.03;8461153;28;20048;-73
2022/11/07 17:04:52;;;;;;;22.88;11.18;;;;;;;8.71;92.38;99335.44;8449835;28;20051;-73
2022/11/07 17:08:54;;;;;;;45.33;16.00;;;;;;;8.76;92.04;99343.44;8463756;28;20082;-73
2022/11/07 17:12:55;;;;;;;26.55;13.00;;;;;;;8.76;92.10;99338.06;8463950;28;20055;-73
2022/11/07 17:16:56;;;;;;;20.42;11.57;;;;;;;8.71;92.02;99346.19;8463910;28;20056;-73
2022/11/07 17:20:57;;;;;;;17.83;10.55;;;;;;;8.61;92.29;99340.97;8434616;28;20048;-73
2022/11/07 17:24:58;;;;;;;19.38;10.10;;;;;;;8.44;92.99;99351.41;8430163;28;20042;-73
2022/11/07 17:29:01;;;;;;;20.75;10.27;;;;;;;8.37;93.25;99343.66;8463375;28;20285;-73
2022/11/07 17:33:02;;;;;;;23.83;11.27;;;;;;;8.32;93.39;99353.69;8429925;28;20048;-75
2022/11/07 17:37:03;;;;;;;20.33;11.05;;;;;;;8.33;93.26;99349.91;8430570;28;20119;-74
2022/11/07 17:41:16;;;;;;;25.10;10.63;;;;;;;8.28;93.35;99347.25;8457332;28;20066;-74
2022/11/07 17:45:20;;;;;;;21.98;11.32;;;;;;;8.20;93.93;99350.56;8390536;28;20055;-74
2022/11/07 17:49:21;;;;;;;21.85;11.45;;;;;;;8.19;94.03;99343.63;8444773;28;20040;-74
2022/11/07 17:53:22;;;;;;;21.50;11.48;;;;;;;8.18;94.01;99347.38;8423077;28;20036;-75
2022/11/07 17:57:23;;;;;;;19.00;10.98;;;;;;;8.17;94.20;99340.41;8427475;28;20474;-75
2022/11/07 18:01:27;;;;;;;20.40;10.80;;;;;;;8.25;93.85;99342.47;8400350;28;20051;-74
2022/11/07 18:05:31;;;;;;;24.13;10.82;;;;;;;8.31;93.65;99346.69;8428017;28;20475;-74
2022/11/07 18:09:33;;;;;;;19.95;10.50;;;;;;;8.36;93.78;99349.34;8456735;28;20040;-74
2022/11/07 18:13:34;;;;;;;23.48;11.65;;;;;;;8.44;93.62;99356.78;8456046;28;20074;-74
2022/11/07 18:17:35;;;;;;;18.45;10.00;;;;;;;8.51;93.75;99341.09;8449648;28;20055;-74
2022/11/07 18:21:36;;;;;;;19.58;10.82;;;;;;;8.52;93.46;99342.66;8403806;28;20044;-74
2022/11/07 18:25:40;;;;;;;20.50;11.18;;;;;;;8.60;93.39;99344.72;8442114;28;20052;-73
2022/11/07 18:29:41;;;;;;;21.55;11.10;;;;;;;8.61;93.28;99351.72;8428979;28;20598;-75
2022/11/07 18:33:43;;;;;;;22.60;10.32;;;;;;;8.67;93.27;99345.16;8429886;28;20039;-75
2022/11/07 18:37:45;;;;;;;18.70;10.40;;;;;;;8.68;93.43;99362.13;8419944;28;20114;-74
2022/11/07 18:41:50;;;;;;;21.90;10.43;;;;;;;8.70;93.39;99355.38;8437324;28;20096;-75
2022/11/07 18:45:52;;;;;;;22.42;11.20;;;;;;;8.72;93.26;99353.19;8427137;28;20059;-74
2022/11/07 18:49:55;;;;;;;18.17;10.73;;;;;;;8.75;93.55;99352.59;8430146;28;20105;-75
2022/11/07 18:53:59;;;;;;;19.90;11.63;;;;;;;8.74;93.32;99367.16;8431049;28;20135;-74
2022/11/07 18:58:00;;;;;;;19.50;11.07;;;;;;;8.73;93.44;99365.53;8428757;28;20514;-74
2022/11/07 19:02:01;;;;;;;21.02;10.98;;;;;;;8.76;93.64;99364.97;8433559;28;20462;-75
2022/11/07 19:06:07;;;;;;;21.42;11.63;;;;;;;8.77;93.76;99366.59;8425931;28;20127;-74
2022/11/07 19:10:10;;;;;;;19.15;11.02;;;;;;;8.80;93.93;99360.59;8427450;28;20109;-74